Airfield :







YOU CAN JOIN US ON...

 
LOGIN :

Register | Disclaimer

   EN    FR    IT 

 









Legend :    VFR   Marginal VFR   IFR   Intensive IFR   Very Intensive IFR
Visi :
Ceiling :
>= 8 km
>= 3000ft
5 to 8 km
1000 to 3000 ft
1500m to 5 km
500 to 1000 ft
800 to 1500m
200 to 500 ft
< 800m
< 200 ft
Symbols :   Thunderstorms  Fog  Heavy snow  Heavy precipitations  Wind > 20 kt






- Airport Elevation : 288 ft


KLEW - Auburn Lewiston Municipal

CURRENT METAR :
  • 280556Z AUTO 34003KT 10SM BKN047 OVC060 00/M02 A2959 RMK AO2 SLP028 60000 T00001017 10033 21006 51006 FZRANO

EXPIRED METARs :
  • 280456Z AUTO 00000KT 10SM OVC046 M01/M02 A2959 RMK AO2 UPB0359E22B38E43RAB22E38 SLP027 P0000 T10061017 FZRANO
  • 280356Z AUTO 00000KT 10SM BKN038 OVC048 M01/M02 A2958 RMK AO2 SLP026 T10061022 400611033 FZRANO

TAF N/A



MET'MAP, your aeronautical weather chart ! - Copyright ORBIFLY December 2007 - Disclaimer

ORBIFLY MET'MAP TEAM :

Programming & Development : Alexandra Zaïnal
Concept & original design : Baudouin d'Aumeries
Assistance for programming : Marc-Olivier Méhu
Technical & hardware support : Manuel Goepfert

Contact : metmap@orbifly.com




SOURCES & CREDITS :

   NOAA